Time;durP1;ratioP1;P1;durP2;ratioP2;P2;SDS_P1;SDS_P2;PMS_P1;PMS_P2;Temp;Humidity;BMP_temperature;BMP_pressure;BME280_temperature;BME280_humidity;BME280_pressure;Samples;Min_cycle;Max_cycle;Signal;HPM_P1;HPM_P2
2021/08/25 00:02:23;;;;;;;8.10;4.87;;;16.30;78.90;;;;;;5072657;28;20160;-78
2021/08/25 00:04:49;;;;;;;8.53;5.93;;;16.30;78.40;;;;;;5072078;28;20169;-77
2021/08/25 00:07:15;;;;;;;8.93;5.33;;;16.30;78.10;;;;;;5071910;28;20162;-77
2021/08/25 00:09:42;;;;;;;8.23;5.47;;;16.20;78.50;;;;;;5072283;28;20207;-77
2021/08/25 00:12:10;;;;;;;8.47;5.43;;;16.20;79.70;;;;;;5075033;28;20353;-77
2021/08/25 00:14:38;;;;;;;8.23;5.20;;;16.20;80.40;;;;;;5075374;28;20164;-77
2021/08/25 00:17:03;;;;;;;7.57;5.40;;;16.20;81.40;;;;;;5075460;28;20214;-78
2021/08/25 00:19:29;;;;;;;8.10;5.67;;;16.20;80.90;;;;;;5076160;28;20579;-78
2021/08/25 00:21:55;;;;;;;8.33;5.43;;;16.20;81.30;;;;;;5075929;28;20214;-78
2021/08/25 00:24:21;;;;;;;8.90;5.23;;;16.20;82.40;;;;;;5075601;28;20262;-77
2021/08/25 00:26:47;;;;;;;8.03;5.70;;;16.10;83.50;;;;;;5075454;28;20267;-77
2021/08/25 00:29:14;;;;;;;9.10;5.97;;;16.10;82.60;;;;;;5075736;28;20595;-77
2021/08/25 00:31:40;;;;;;;8.47;5.93;;;16.10;83.20;;;;;;5075703;28;20265;-77
2021/08/25 00:34:07;;;;;;;10.43;5.87;;;15.90;85.10;;;;;;5074988;28;20171;-77
2021/08/25 00:36:32;;;;;;;7.53;6.00;;;15.80;86.90;;;;;;5057744;28;20182;-77
2021/08/25 00:38:58;;;;;;;9.87;6.27;;;16.00;86.70;;;;;;5057587;28;20166;-77
2021/08/25 00:41:24;;;;;;;9.13;6.37;;;16.00;87.00;;;;;;5074660;28;20171;-77
2021/08/25 00:43:49;;;;;;;8.17;5.80;;;15.80;88.00;;;;;;5075063;28;20172;-77
2021/08/25 00:46:16;;;;;;;9.17;5.83;;;15.70;90.10;;;;;;5075437;28;20168;-77
2021/08/25 00:48:47;;;;;;;8.40;5.73;;;15.70;90.60;;;;;;5075299;28;20235;-77
2021/08/25 00:51:16;;;;;;;11.10;5.97;;;15.70;90.30;;;;;;5074743;28;20268;-77
2021/08/25 00:53:43;;;;;;;8.70;6.23;;;15.60;90.70;;;;;;5074865;28;20160;-77
2021/08/25 00:56:09;;;;;;;8.10;5.83;;;15.70;90.20;;;;;;5075453;28;20170;-77
2021/08/25 00:58:39;;;;;;;8.47;6.00;;;15.70;90.20;;;;;;5074845;28;20165;-77
2021/08/25 01:01:08;;;;;;;9.13;6.13;;;15.60;90.10;;;;;;5074562;28;20189;-77
2021/08/25 01:03:46;;;;;;;8.57;6.20;;;15.70;90.10;;;;;;5075315;28;20175;-77
2021/08/25 01:06:20;;;;;;;9.63;5.93;;;15.60;90.30;;;;;;5075133;28;20194;-76
2021/08/25 01:08:47;;;;;;;9.33;6.03;;;15.70;90.00;;;;;;5074718;28;20250;-77
2021/08/25 01:11:13;;;;;;;11.83;6.23;;;15.60;90.50;;;;;;5074559;28;20212;-77
2021/08/25 01:13:39;;;;;;;11.33;6.37;;;15.60;90.30;;;;;;5084974;28;20155;-76
2021/08/25 01:16:08;;;;;;;10.27;6.07;;;15.60;90.30;;;;;;5099023;28;20203;-78
2021/08/25 01:18:34;;;;;;;7.83;5.93;;;15.60;90.40;;;;;;5096563;28;20204;-76
2021/08/25 01:21:00;;;;;;;10.93;6.07;;;15.60;90.50;;;;;;5079227;28;20238;-78
2021/08/25 01:23:27;;;;;;;8.83;6.07;;;15.60;90.60;;;;;;5074130;28;20175;-75
2021/08/25 01:25:59;;;;;;;8.73;6.00;;;15.50;90.10;;;;;;5074452;28;20165;-76
2021/08/25 01:28:28;;;;;;;11.07;6.13;;;15.40;91.30;;;;;;5074636;28;20282;-77
2021/08/25 01:30:55;;;;;;;11.30;6.63;;;15.40;91.40;;;;;;5055703;28;20627;-77
2021/08/25 01:33:22;;;;;;;9.20;6.03;;;15.40;91.10;;;;;;5074755;28;20168;-77
2021/08/25 01:35:48;;;;;;;11.10;6.30;;;15.40;90.80;;;;;;5073720;28;20179;-77
2021/08/25 01:38:31;;;;;;;8.90;6.07;;;15.30;91.20;;;;;;5075086;28;20172;-77
2021/08/25 01:40:57;;;;;;;7.73;6.27;;;15.30;91.20;;;;;;5075723;28;20667;-75
2021/08/25 01:43:23;;;;;;;11.07;7.17;;;15.30;91.10;;;;;;5092158;28;20305;-76
2021/08/25 01:45:49;;;;;;;9.33;6.50;;;15.30;91.40;;;;;;5096741;28;20176;-76
2021/08/25 01:48:14;;;;;;;8.33;6.57;;;15.30;91.20;;;;;;5092855;28;20162;-77
2021/08/25 01:50:40;;;;;;;9.73;7.00;;;15.20;92.20;;;;;;5098681;28;20220;-76
2021/08/25 01:53:06;;;;;;;9.63;6.67;;;15.20;92.70;;;;;;5098892;28;20802;-76
2021/08/25 01:55:34;;;;;;;9.03;6.93;;;15.30;92.40;;;;;;5086681;28;20175;-77
2021/08/25 01:58:01;;;;;;;11.90;7.17;;;15.20;92.30;;;;;;5056468;28;20178;-77
2021/08/25 02:00:27;;;;;;;11.23;6.50;;;15.10;93.10;;;;;;5074381;28;20174;-77
2021/08/25 02:02:52;;;;;;;10.77;6.97;;;15.00;93.20;;;;;;5073656;28;20223;-77
2021/08/25 02:05:19;;;;;;;11.83;7.27;;;15.00;93.30;;;;;;5074214;28;20253;-77
2021/08/25 02:07:47;;;;;;;9.73;6.70;;;15.00;93.10;;;;;;5074495;28;20168;-77
2021/08/25 02:10:12;;;;;;;10.27;6.87;;;15.00;92.90;;;;;;5087561;28;20191;-77
2021/08/25 02:12:38;;;;;;;9.57;6.93;;;15.00;93.20;;;;;;5098306;28;20165;-77
2021/08/25 02:15:04;;;;;;;9.87;6.67;;;15.10;93.00;;;;;;5089393;28;20257;-77
2021/08/25 02:17:30;;;;;;;11.47;7.10;;;15.00;92.90;;;;;;5075430;28;20169;-76
2021/08/25 02:19:55;;;;;;;8.97;6.07;;;14.90;93.70;;;;;;5074173;28;20228;-77
2021/08/25 02:22:23;;;;;;;11.07;6.90;;;14.90;93.50;;;;;;5073666;28;20168;-77
2021/08/25 02:24:48;;;;;;;9.40;6.80;;;15.00;94.30;;;;;;5073253;28;20686;-76
2021/08/25 02:27:14;;;;;;;11.57;7.03;;;14.90;93.70;;;;;;5073417;28;20197;-76
2021/08/25 02:29:40;;;;;;;9.67;6.80;;;14.90;94.30;;;;;;5072830;28;20654;-77
2021/08/25 02:32:06;;;;;;;11.10;7.23;;;14.90;93.80;;;;;;5073101;28;20180;-77
2021/08/25 02:34:31;;;;;;;9.80;6.80;;;14.80;94.30;;;;;;5072927;28;20199;-77
2021/08/25 02:36:57;;;;;;;8.13;6.60;;;14.80;94.70;;;;;;5073302;28;20203;-79
2021/08/25 02:39:23;;;;;;;9.53;6.47;;;14.90;94.40;;;;;;5072885;28;20173;-77
2021/08/25 02:41:48;;;;;;;8.40;6.47;;;14.80;94.10;;;;;;5072368;28;20189;-77
2021/08/25 02:44:14;;;;;;;10.43;6.27;;;14.80;94.00;;;;;;5073576;28;20228;-77
2021/08/25 02:46:40;;;;;;;8.60;6.30;;;14.70;93.90;;;;;;5072964;28;20251;-77
2021/08/25 02:49:06;;;;;;;10.60;6.80;;;14.70;94.00;;;;;;5072675;28;20192;-77
2021/08/25 02:51:31;;;;;;;8.47;6.77;;;14.60;94.70;;;;;;5072927;28;20269;-77
2021/08/25 02:53:57;;;;;;;9.70;7.10;;;14.60;94.70;;;;;;5072921;28;20536;-77
2021/08/25 02:56:23;;;;;;;9.60;6.43;;;14.70;95.00;;;;;;5073384;28;20176;-77
2021/08/25 02:58:48;;;;;;;10.47;6.40;;;14.70;94.70;;;;;;5072411;28;20170;-77
2021/08/25 03:01:14;;;;;;;10.53;7.43;;;14.60;94.60;;;;;;5073124;28;20252;-77
2021/08/25 03:03:40;;;;;;;9.50;6.87;;;14.60;94.60;;;;;;5072978;28;20173;-77
2021/08/25 03:06:05;;;;;;;9.27;6.30;;;14.50;94.40;;;;;;5073062;28;20172;-77
2021/08/25 03:08:35;;;;;;;12.60;7.33;;;14.60;94.40;;;;;;5071818;28;20636;-77
2021/08/25 03:11:00;;;;;;;8.83;6.87;;;14.60;94.20;;;;;;5072933;28;20258;-77
2021/08/25 03:13:26;;;;;;;10.57;6.97;;;14.60;94.60;;;;;;5073247;28;20181;-77
2021/08/25 03:15:52;;;;;;;10.30;6.93;;;14.50;95.40;;;;;;5072359;28;20548;-77
2021/08/25 03:18:18;;;;;;;10.83;7.03;;;14.50;95.90;;;;;;5072545;28;20177;-77
2021/08/25 03:20:43;;;;;;;9.77;6.83;;;14.50;95.80;;;;;;5072953;28;20184;-77
2021/08/25 03:23:09;;;;;;;12.67;7.27;;;14.40;95.80;;;;;;5072655;28;20174;-77
2021/08/25 03:25:35;;;;;;;8.53;6.53;;;14.40;95.40;;;;;;5071912;28;20651;-76
2021/08/25 03:28:00;;;;;;;11.07;7.43;;;14.40;95.60;;;;;;5072747;28;20229;-77
2021/08/25 03:30:27;;;;;;;9.57;7.37;;;14.40;95.60;;;;;;5072944;28;20201;-76
2021/08/25 03:32:53;;;;;;;10.20;6.70;;;14.30;96.00;;;;;;5072697;28;20658;-76
2021/08/25 03:35:18;;;;;;;12.47;7.70;;;14.30;95.60;;;;;;5072733;28;20165;-76
2021/08/25 03:37:44;;;;;;;11.27;7.40;;;14.30;95.80;;;;;;5072328;28;20180;-76
2021/08/25 03:40:10;;;;;;;8.47;6.90;;;14.30;95.30;;;;;;5073178;28;20164;-77
2021/08/25 03:42:36;;;;;;;11.60;7.70;;;14.20;95.20;;;;;;5073453;28;20180;-77
2021/08/25 03:45:02;;;;;;;11.20;7.93;;;14.20;95.70;;;;;;5072829;28;20171;-76
2021/08/25 03:47:29;;;;;;;13.77;8.17;;;14.20;96.20;;;;;;5060647;28;20187;-76
2021/08/25 03:49:55;;;;;;;12.93;7.83;;;14.10;96.20;;;;;;5077966;28;20202;-77
2021/08/25 03:52:21;;;;;;;11.17;7.50;;;14.20;96.00;;;;;;5060028;28;20633;-77
2021/08/25 03:54:46;;;;;;;12.73;7.53;;;14.20;96.20;;;;;;5077943;28;20225;-78
2021/08/25 03:57:12;;;;;;;14.33;7.50;;;14.20;96.10;;;;;;5062047;28;20172;-77
2021/08/25 03:59:38;;;;;;;12.53;7.93;;;14.20;96.20;;;;;;5079906;28;20179;-78
2021/08/25 04:02:04;;;;;;;11.73;8.33;;;14.10;96.60;;;;;;5090765;28;20177;-77
2021/08/25 04:04:30;;;;;;;11.90;7.47;;;14.10;96.90;;;;;;5079822;28;20200;-77
2021/08/25 04:06:55;;;;;;;11.63;8.20;;;14.10;96.90;;;;;;5077185;28;20173;-77
2021/08/25 04:09:21;;;;;;;11.03;8.10;;;14.10;96.90;;;;;;5076274;28;20625;-76
2021/08/25 04:11:47;;;;;;;12.27;7.33;;;14.00;97.20;;;;;;5077294;28;20217;-77
2021/08/25 04:14:12;;;;;;;14.37;7.90;;;14.00;97.50;;;;;;5077545;28;20214;-78
2021/08/25 04:16:38;;;;;;;10.47;7.93;;;14.00;97.40;;;;;;5077078;28;20207;-77
2021/08/25 04:19:03;;;;;;;10.27;7.17;;;14.00;97.20;;;;;;5077116;28;20218;-75
2021/08/25 04:21:29;;;;;;;12.13;7.37;;;14.00;97.30;;;;;;5078422;28;20178;-76
2021/08/25 04:23:55;;;;;;;10.43;7.57;;;13.90;97.50;;;;;;5078231;28;20651;-77
2021/08/25 04:26:20;;;;;;;9.87;7.57;;;13.90;97.10;;;;;;5076609;28;20233;-78
2021/08/25 04:28:46;;;;;;;10.57;7.37;;;13.90;97.20;;;;;;5076454;28;20653;-78
2021/08/25 04:31:11;;;;;;;12.97;7.90;;;13.80;98.10;;;;;;5076577;28;20626;-76
2021/08/25 04:33:37;;;;;;;11.80;7.37;;;13.70;98.30;;;;;;5076188;28;20169;-76
2021/08/25 04:36:04;;;;;;;10.83;7.67;;;13.80;98.50;;;;;;5075197;28;20173;-77
2021/08/25 04:38:30;;;;;;;15.63;8.43;;;13.80;98.30;;;;;;5076358;28;20199;-76
2021/08/25 04:40:58;;;;;;;13.03;8.00;;;13.80;98.00;;;;;;5075011;28;20170;-76
2021/08/25 04:43:25;;;;;;;11.33;7.90;;;13.80;97.90;;;;;;5075865;28;20207;-77
2021/08/25 04:45:50;;;;;;;13.07;8.17;;;13.90;97.60;;;;;;5057128;28;20268;-77
2021/08/25 04:48:16;;;;;;;11.40;7.70;;;14.00;96.60;;;;;;5075818;28;20208;-78
2021/08/25 04:50:42;;;;;;;16.40;8.97;;;14.00;96.10;;;;;;5075295;28;20230;-77
2021/08/25 04:53:07;;;;;;;13.20;8.60;;;14.00;96.30;;;;;;5075145;28;20180;-77
2021/08/25 04:55:35;;;;;;;16.67;8.73;;;14.00;96.20;;;;;;5075591;28;20279;-76
2021/08/25 04:58:01;;;;;;;15.90;8.33;;;14.00;95.70;;;;;;5075708;28;20229;-77
2021/08/25 05:00:27;;;;;;;16.90;8.80;;;14.00;95.80;;;;;;5075112;28;20700;-77
2021/08/25 05:02:52;;;;;;;21.13;9.33;;;14.00;95.90;;;;;;5075977;28;20299;-77
2021/08/25 05:05:18;;;;;;;15.43;8.90;;;13.90;95.70;;;;;;5075953;28;20525;-77
2021/08/25 05:07:44;;;;;;;13.63;8.60;;;13.90;96.30;;;;;;5076025;28;20168;-78
2021/08/25 05:10:10;;;;;;;13.63;7.93;;;13.80;96.40;;;;;;5057808;28;20204;-78
2021/08/25 05:12:36;;;;;;;15.70;8.77;;;13.80;96.20;;;;;;5074799;28;20184;-77
2021/08/25 05:15:02;;;;;;;13.63;9.43;;;13.80;96.50;;;;;;5075471;28;20166;-77
2021/08/25 05:17:27;;;;;;;14.40;8.97;;;13.90;96.70;;;;;;5075261;28;20172;-77
2021/08/25 05:19:53;;;;;;;15.20;8.80;;;13.90;96.40;;;;;;5075688;28;20654;-77
2021/08/25 05:22:18;;;;;;;12.33;8.60;;;13.90;96.30;;;;;;5076753;28;20664;-78
2021/08/25 05:24:44;;;;;;;11.23;8.23;;;13.80;96.30;;;;;;5088284;28;20185;-76
2021/08/25 05:27:10;;;;;;;14.77;8.17;;;13.80;96.00;;;;;;5099071;28;20550;-76
2021/08/25 05:29:35;;;;;;;14.33;8.50;;;13.90;96.20;;;;;;5080511;28;20581;-77
2021/08/25 05:32:01;;;;;;;12.97;8.90;;;13.90;96.00;;;;;;5077285;28;20184;-76
2021/08/25 05:34:33;;;;;;;13.17;8.83;;;13.90;95.70;;;;;;5075555;28;20168;-75
2021/08/25 05:37:01;;;;;;;15.10;8.70;;;13.90;95.70;;;;;;5075416;28;20180;-76
2021/08/25 05:39:27;;;;;;;16.40;8.33;;;13.90;96.40;;;;;;5075056;28;20207;-76
2021/08/25 05:41:52;;;;;;;18.10;9.10;;;13.90;95.80;;;;;;5057211;28;20188;-76
2021/08/25 05:44:18;;;;;;;14.37;8.60;;;13.90;95.40;;;;;;5074645;28;20174;-77
2021/08/25 05:46:44;;;;;;;16.27;8.83;;;14.00;95.30;;;;;;5077722;28;20726;-76
2021/08/25 05:49:09;;;;;;;19.60;9.23;;;14.00;94.70;;;;;;5081476;28;20203;-77
2021/08/25 05:51:35;;;;;;;15.40;9.10;;;14.00;94.30;;;;;;5099313;28;20236;-77
2021/08/25 05:54:01;;;;;;;16.03;10.13;;;14.10;94.40;;;;;;5097214;28;20179;-78
2021/08/25 05:56:26;;;;;;;13.33;9.27;;;14.00;94.30;;;;;;5077422;28;20252;-78
2021/08/25 05:58:52;;;;;;;13.23;9.87;;;14.10;93.60;;;;;;5077579;28;20176;-77
2021/08/25 06:01:21;;;;;;;15.83;9.27;;;14.20;93.50;;;;;;5075205;28;20534;-78
2021/08/25 06:03:47;;;;;;;12.83;9.53;;;14.10;93.00;;;;;;5067016;28;20167;-78
2021/08/25 06:06:13;;;;;;;17.73;10.03;;;14.10;93.20;;;;;;5099373;28;20408;-78
2021/08/25 06:08:39;;;;;;;15.13;9.83;;;14.20;93.60;;;;;;5081464;28;20196;-79
2021/08/25 06:11:05;;;;;;;16.57;10.63;;;14.10;93.30;;;;;;5074758;28;20231;-80
2021/08/25 06:13:31;;;;;;;13.47;9.30;;;14.30;92.70;;;;;;5080572;28;20241;-79
2021/08/25 06:15:57;;;;;;;17.87;9.90;;;14.20;91.60;;;;;;5078974;28;20188;-79
2021/08/25 06:18:26;;;;;;;13.97;9.13;;;14.20;91.50;;;;;;5075264;28;20165;-78
2021/08/25 06:20:58;;;;;;;15.13;9.77;;;14.20;91.20;;;;;;5074117;28;20165;-78
2021/08/25 06:23:24;;;;;;;15.80;10.67;;;14.20;90.80;;;;;;5074600;28;20261;-78
2021/08/25 06:25:50;;;;;;;15.70;9.90;;;14.30;90.70;;;;;;5074124;28;20248;-79
2021/08/25 06:28:16;;;;;;;13.60;9.70;;;14.30;90.20;;;;;;5073950;28;20267;-82
2021/08/25 06:30:42;;;;;;;15.03;10.00;;;14.30;88.90;;;;;;5074019;28;20809;-79
2021/08/25 06:33:07;;;;;;;18.00;10.40;;;14.30;87.10;;;;;;5055416;28;20181;-78
2021/08/25 06:35:33;;;;;;;13.57;9.57;;;14.30;86.00;;;;;;5055167;28;20199;-80
2021/08/25 06:37:59;;;;;;;13.27;9.60;;;14.40;85.10;;;;;;5066688;28;20160;-79
2021/08/25 06:40:24;;;;;;;13.03;10.00;;;14.40;85.60;;;;;;5097202;28;20160;-79
2021/08/25 06:42:50;;;;;;;13.03;9.97;;;14.40;84.50;;;;;;5096960;28;20205;-80
2021/08/25 06:45:16;;;;;;;12.73;9.50;;;14.50;84.00;;;;;;5092879;28;20498;-79
2021/08/25 06:47:41;;;;;;;18.47;10.53;;;14.30;82.10;;;;;;5079008;28;20646;-80
2021/08/25 06:50:08;;;;;;;13.87;9.93;;;14.60;83.50;;;;;;5079858;28;20207;-79
2021/08/25 06:52:50;;;;;;;21.27;10.50;;;14.60;81.30;;;;;;5075344;28;20172;-79
2021/08/25 06:55:18;;;;;;;14.73;10.50;;;14.60;80.90;;;;;;5073479;28;20160;-80
2021/08/25 06:57:43;;;;;;;13.47;9.63;;;14.70;81.20;;;;;;5073080;28;20164;-80
2021/08/25 07:00:10;;;;;;;17.10;10.47;;;14.70;81.20;;;;;;5072529;28;20718;-80
2021/08/25 07:02:35;;;;;;;17.50;10.40;;;14.70;80.90;;;;;;5072876;28;20636;-80
2021/08/25 07:05:01;;;;;;;20.43;11.73;;;14.80;80.20;;;;;;5073043;28;20204;-80
2021/08/25 07:07:27;;;;;;;20.83;11.10;;;15.00;78.60;;;;;;5073253;28;20207;-80
2021/08/25 07:09:53;;;;;;;23.10;12.80;;;15.10;76.80;;;;;;5072475;28;20229;-80
2021/08/25 07:12:21;;;;;;;18.53;10.50;;;15.20;73.90;;;;;;5054219;28;20204;-79
2021/08/25 07:14:47;;;;;;;20.40;11.10;;;15.20;72.30;;;;;;5072021;28;20168;-78
2021/08/25 07:17:12;;;;;;;12.13;9.67;;;15.30;72.40;;;;;;5071874;28;20248;-78
2021/08/25 07:19:41;;;;;;;16.00;11.10;;;15.40;68.30;;;;;;5071706;28;20180;-79
2021/08/25 07:22:08;;;;;;;20.73;11.10;;;15.50;69.30;;;;;;5055170;28;20228;-79
2021/08/25 07:24:33;;;;;;;15.73;10.47;;;15.50;67.30;;;;;;5055990;28;20177;-80
2021/08/25 07:26:59;;;;;;;17.37;9.97;;;15.50;64.10;;;;;;5055857;28;20519;-79
2021/08/25 07:29:24;;;;;;;15.30;10.00;;;15.50;64.50;;;;;;5054879;28;20172;-79
2021/08/25 07:31:50;;;;;;;13.57;9.93;;;15.50;62.00;;;;;;5073421;28;20208;-80
2021/08/25 07:34:16;;;;;;;13.97;9.93;;;15.60;63.00;;;;;;5073812;28;20165;-77
2021/08/25 07:36:42;;;;;;;15.40;9.33;;;15.70;60.80;;;;;;5075265;28;20580;-79
2021/08/25 07:39:07;;;;;;;12.33;9.30;;;15.70;56.80;;;;;;5073925;28;20252;-80
2021/08/25 07:41:33;;;;;;;13.87;10.27;;;15.70;55.10;;;;;;5073640;28;20882;-79
2021/08/25 07:43:59;;;;;;;14.60;10.73;;;15.80;54.40;;;;;;5074156;28;20216;-80
2021/08/25 07:46:32;;;;;;;16.33;9.77;;;15.90;53.20;;;;;;5076190;28;20202;-81
2021/08/25 07:49:05;;;;;;;19.30;11.07;;;15.90;50.80;;;;;;5036057;28;1111333;-79
2021/08/25 07:51:34;;;;;;;17.87;10.33;;;16.10;47.90;;;;;;5057325;28;20212;-80
2021/08/25 07:54:03;;;;;;;14.63;11.00;;;16.20;46.20;;;;;;5077362;28;20178;-78
2021/08/25 07:56:29;;;;;;;23.93;11.03;;;16.30;42.40;;;;;;5082266;28;20200;-82
2021/08/25 07:58:56;;;;;;;15.90;9.37;;;16.40;41.90;;;;;;5081231;28;20161;-81
2021/08/25 08:01:23;;;;;;;14.57;10.00;;;16.40;37.00;;;;;;5087590;28;20308;-79
2021/08/25 08:03:49;;;;;;;15.73;10.57;;;16.50;37.10;;;;;;5052385;28;20194;-81
2021/08/25 08:06:19;;;;;;;14.13;9.80;;;16.70;37.60;;;;;;5057614;28;20176;-81
2021/08/25 08:08:45;;;;;;;14.17;9.80;;;16.80;28.40;;;;;;5074780;28;20183;-81
2021/08/25 08:11:10;;;;;;;18.50;9.10;;;16.90;22.00;;;;;;5061227;28;20285;-80
2021/08/25 08:13:36;;;;;;;14.60;8.83;;;17.00;20.70;;;;;;5065894;28;20191;-81
2021/08/25 08:16:02;;;;;;;13.63;8.77;;;17.00;15.00;;;;;;5057615;28;20185;-81
2021/08/25 08:18:33;;;;;;;12.50;8.17;;;17.20;23.00;;;;;;5053347;28;20180;-80
2021/08/25 08:20:59;;;;;;;14.53;8.70;;;17.50;14.80;;;;;;5056316;28;20223;-82
2021/08/25 08:23:26;;;;;;;11.27;8.30;;;17.50;4.70;;;;;;5054325;28;20670;-80
2021/08/25 08:25:51;;;;;;;12.87;8.30;;;17.80;11.60;;;;;;5048545;28;20168;-79
2021/08/25 08:28:17;;;;;;;11.13;7.47;;;18.00;1.00;;;;;;5056820;28;20635;-79
2021/08/25 08:30:43;;;;;;;14.37;8.00;;;18.20;1.00;;;;;;5053759;28;20209;-79
2021/08/25 08:33:09;;;;;;;16.43;7.83;;;18.50;1.00;;;;;;5055826;28;20247;-78
2021/08/25 08:35:36;;;;;;;16.07;8.70;;;18.40;1.00;;;;;;5071217;28;20199;-81
2021/08/25 08:38:06;;;;;;;12.63;7.07;;;18.60;1.00;;;;;;5076078;28;20176;-79
2021/08/25 08:40:33;;;;;;;11.20;7.10;;;18.80;1.00;;;;;;5076244;28;20230;-79
2021/08/25 08:43:10;;;;;;;11.00;7.63;;;18.90;1.00;;;;;;5058513;28;20215;-79
2021/08/25 08:45:42;;;;;;;13.30;6.93;;;19.00;1.00;;;;;;5076655;28;20182;-79
2021/08/25 08:48:10;;;;;;;15.43;6.83;;;19.00;1.00;;;;;;5076525;28;20264;-79
2021/08/25 08:50:38;;;;;;;9.30;6.60;;;19.20;1.00;;;;;;5076190;28;20207;-78
2021/08/25 08:53:08;;;;;;;9.87;6.40;;;19.30;1.00;;;;;;5078165;28;20197;-77
2021/08/25 08:55:34;;;;;;;11.80;6.57;;;19.10;1.00;;;;;;5081490;28;20336;-78
2021/08/25 08:58:00;;;;;;;15.07;7.53;;;19.10;1.00;;;;;;5084339;28;20177;-76
2021/08/25 09:00:26;;;;;;;14.43;7.70;;;19.00;1.00;;;;;;5076801;28;20251;-77
2021/08/25 09:02:52;;;;;;;13.03;6.40;;;19.00;1.00;;;;;;5075404;28;20172;-77
2021/08/25 09:05:26;;;;;;;13.33;6.57;;;19.00;1.00;;;;;;5075633;28;20156;-77
2021/08/25 09:08:01;;;;;;;11.87;5.87;;;19.00;1.00;;;;;;5076839;28;20170;-80
2021/08/25 09:10:34;;;;;;;11.10;5.53;;;18.90;1.00;;;;;;5075838;28;20203;-81
2021/08/25 09:13:05;;;;;;;17.17;6.50;;;19.00;1.00;;;;;;5074478;28;20267;-79
2021/08/25 09:15:35;;;;;;;12.83;5.70;;;19.10;1.00;;;;;;5058211;28;20180;-81
2021/08/25 09:18:05;;;;;;;14.40;6.73;;;19.20;1.00;;;;;;5091671;28;20194;-80
2021/08/25 09:20:39;;;;;;;18.23;6.80;;;19.30;1.00;;;;;;5096256;28;20181;-79
2021/08/25 09:23:20;;;;;;;11.03;6.00;;;19.40;1.00;;;;;;5080499;28;20222;-80
2021/08/25 09:25:48;;;;;;;11.37;5.93;;;19.50;1.00;;;;;;5075202;28;20237;-80
2021/08/25 09:28:16;;;;;;;12.03;5.40;;;19.50;1.00;;;;;;5075060;28;20211;-79
2021/08/25 09:31:04;;;;;;;7.87;4.57;;;19.50;1.00;;;;;;5075407;28;20211;-80
2021/08/25 09:33:42;;;;;;;10.97;6.20;;;19.60;1.00;;;;;;5075607;28;20298;-80
2021/08/25 09:36:14;;;;;;;8.83;5.37;;;19.60;1.00;;;;;;5075585;28;20171;-80
2021/08/25 09:38:51;;;;;;;10.50;5.47;;;19.70;1.00;;;;;;5075682;28;20177;-80
2021/08/25 09:41:17;;;;;;;10.20;5.10;;;19.80;1.00;;;;;;5063041;28;20186;-80
2021/08/25 09:43:44;;;;;;;10.80;4.80;;;19.80;1.00;;;;;;5074152;28;20253;-80
2021/08/25 09:46:16;;;;;;;9.77;5.60;;;19.80;1.00;;;;;;5075392;28;20169;-81
2021/08/25 09:48:43;;;;;;;9.10;5.07;;;19.80;1.00;;;;;;5056966;28;20266;-81
2021/08/25 09:51:10;;;;;;;11.30;5.47;;;19.90;1.00;;;;;;5074848;28;20717;-80
2021/08/25 09:53:36;;;;;;;8.27;4.27;;;19.90;1.00;;;;;;5056578;28;20173;-79
2021/08/25 09:56:16;;;;;;;10.30;4.53;;;20.00;1.00;;;;;;5075077;28;20317;-80
2021/08/25 09:58:42;;;;;;;10.37;5.00;;;20.00;1.00;;;;;;5074556;28;20175;-81
2021/08/25 10:01:09;;;;;;;8.10;4.37;;;20.00;1.00;;;;;;5074717;28;20177;-81
2021/08/25 10:03:35;;;;;;;7.60;4.37;;;20.10;1.00;;;;;;5074719;28;20168;-80
2021/08/25 10:06:00;;;;;;;7.30;4.10;;;20.20;1.00;;;;;;5074794;28;20651;-80
2021/08/25 10:08:26;;;;;;;7.63;4.00;;;20.30;1.00;;;;;;5074179;28;20179;-79
2021/08/25 10:10:53;;;;;;;9.03;4.40;;;20.40;1.00;;;;;;5056636;28;20665;-80
2021/08/25 10:13:19;;;;;;;9.10;4.63;;;20.40;1.00;;;;;;5074671;28;20186;-80
2021/08/25 10:15:45;;;;;;;9.23;4.43;;;20.30;1.00;;;;;;5074680;28;20623;-80
2021/08/25 10:18:29;;;;;;;6.97;4.00;;;20.30;99.90;;;;;;5074659;28;20164;-79
2021/08/25 10:20:58;;;;;;;11.03;4.27;;;20.50;1.00;;;;;;5074479;28;20166;-80
2021/08/25 10:23:57;;;;;;;7.40;3.70;;;20.70;99.90;;;;;;5074664;28;20170;-79
2021/08/25 10:26:24;;;;;;;6.20;4.00;;;20.80;99.90;;;;;;5075142;28;20173;-79
2021/08/25 10:28:59;;;;;;;6.67;3.97;;;20.70;99.90;;;;;;5097959;28;20177;-81
2021/08/25 10:31:46;;;;;;;7.13;4.20;;;20.80;99.90;;;;;;5098399;28;20217;-81
2021/08/25 10:34:14;;;;;;;6.40;4.17;;;20.80;99.90;;;;;;5064890;28;20181;-79
2021/08/25 10:36:39;;;;;;;7.23;4.30;;;20.80;99.90;;;;;;5078101;28;20169;-80
2021/08/25 10:39:30;;;;;;;8.17;3.77;;;20.80;99.90;;;;;;5077430;28;20320;-81
2021/08/25 10:42:14;;;;;;;7.47;4.00;;;20.70;99.90;;;;;;5075618;28;20171;-80
2021/08/25 10:44:49;;;;;;;7.40;3.90;;;20.60;99.90;;;;;;5073864;28;20188;-79
2021/08/25 10:47:17;;;;;;;7.50;4.43;;;20.80;99.90;;;;;;5075143;28;20220;-80
2021/08/25 10:49:47;;;;;;;10.17;4.90;;;20.80;99.90;;;;;;5076015;28;20185;-79
2021/08/25 10:52:17;;;;;;;6.53;4.10;;;20.70;99.90;;;;;;5080350;28;20638;-81
2021/08/25 10:54:53;;;;;;;7.33;4.23;;;20.70;99.90;;;;;;5059340;28;20193;-80
2021/08/25 10:57:21;;;;;;;8.23;4.53;;;20.90;25.10;;;;;;5076805;28;20170;-79
2021/08/25 10:59:48;;;;;;;11.73;4.33;;;20.90;99.90;;;;;;5080902;28;20189;-79
2021/08/25 11:02:14;;;;;;;9.40;4.70;;;20.80;99.90;;;;;;5074128;28;20202;-80
2021/08/25 11:04:39;;;;;;;7.63;4.17;;;20.80;99.90;;;;;;5083220;28;20169;-79
2021/08/25 11:07:11;;;;;;;9.23;4.83;;;20.90;1.00;;;;;;5081543;28;20161;-79
2021/08/25 11:09:41;;;;;;;8.57;4.87;;;21.10;1.00;;;;;;5075532;28;20158;-78
2021/08/25 11:12:12;;;;;;;8.00;4.23;;;21.10;1.00;;;;;;5080840;28;20225;-81
2021/08/25 11:14:55;;;;;;;9.67;3.70;;;21.30;1.00;;;;;;5081131;28;20166;-82
2021/08/25 11:17:25;;;;;;;10.13;4.13;;;21.50;1.00;;;;;;5057646;28;20174;-81
2021/08/25 11:19:52;;;;;;;5.73;3.70;;;21.40;99.90;;;;;;5075378;28;20163;-81
2021/08/25 11:22:36;;;;;;;8.27;3.93;;;21.30;99.90;;;;;;5075092;28;20196;-80
2021/08/25 11:25:06;;;;;;;8.23;4.27;;;21.40;1.00;;;;;;5073987;28;20212;-81
2021/08/25 11:27:32;;;;;;;8.73;4.40;;;21.50;99.90;;;;;;5074595;28;20173;-81
2021/08/25 11:30:15;;;;;;;7.27;4.07;;;21.50;99.90;;;;;;5074084;28;20170;-80
2021/08/25 11:32:47;;;;;;;5.73;3.63;;;21.50;99.90;;;;;;5074320;28;20249;-81
2021/08/25 11:35:35;;;;;;;8.60;4.00;;;21.40;99.90;;;;;;5073201;28;20192;-81
2021/08/25 11:38:15;;;;;;;7.43;3.60;;;21.50;25.30;;;;;;5072937;28;20187;-79
2021/08/25 11:40:44;;;;;;;7.03;3.80;;;21.50;99.90;;;;;;5057621;28;20270;-81
2021/08/25 11:43:20;;;;;;;7.43;4.10;;;21.60;1.00;;;;;;5055204;28;20603;-80
2021/08/25 11:45:51;;;;;;;6.47;4.17;;;21.50;99.90;;;;;;5073307;28;20646;-80
2021/08/25 11:48:17;;;;;;;7.03;4.57;;;21.50;99.90;;;;;;5074645;28;20180;-79
2021/08/25 11:50:48;;;;;;;6.47;4.07;;;21.50;99.90;;;;;;5073291;28;20210;-82
2021/08/25 11:53:19;;;;;;;9.03;4.43;;;21.70;99.90;;;;;;5056202;28;20175;-81
2021/08/25 11:55:46;;;;;;;10.57;4.17;;;21.70;1.00;;;;;;5055740;28;20181;-79
2021/08/25 11:58:41;;;;;;;6.97;3.90;;;21.60;99.90;;;;;;5056182;28;20214;-81
2021/08/25 12:01:21;;;;;;;10.43;3.93;;;21.70;1.00;;;;;;5065205;28;20631;-80
2021/08/25 12:03:47;;;;;;;6.17;3.40;;;21.60;99.90;;;;;;5078135;28;20167;-79
2021/08/25 12:06:15;;;;;;;6.87;3.27;;;21.60;99.90;;;;;;5079386;28;20201;-79
2021/08/25 12:08:43;;;;;;;6.63;3.37;;;21.60;1.00;;;;;;5098828;28;20173;-79
2021/08/25 12:11:12;;;;;;;6.43;3.67;;;21.60;1.00;;;;;;5070520;28;20225;-80
2021/08/25 12:13:43;;;;;;;9.07;3.70;;;21.70;99.90;;;;;;5082309;28;20179;-78
2021/08/25 12:16:32;;;;;;;6.60;4.40;;;22.10;99.90;;;;;;5080025;28;20176;-79
2021/08/25 12:19:00;;;;;;;6.17;3.10;;;22.20;1.00;;;;;;5080160;28;20194;-79
2021/08/25 12:21:31;;;;;;;6.30;4.03;;;22.20;1.00;;;;;;5079675;28;20620;-79
2021/08/25 12:24:03;;;;;;;5.53;3.43;;;22.30;1.00;;;;;;5063699;28;20593;-79
2021/08/25 12:26:32;;;;;;;7.63;4.03;;;22.20;99.90;;;;;;5080805;28;20176;-81
2021/08/25 12:28:59;;;;;;;4.90;3.40;;;22.10;1.00;;;;;;5085217;28;20176;-79
2021/08/25 12:31:26;;;;;;;5.90;3.60;;;22.00;1.00;;;;;;5099653;28;20218;-80
2021/08/25 12:34:02;;;;;;;8.00;4.40;;;22.10;1.00;;;;;;5077843;28;20201;-78
2021/08/25 12:36:30;;;;;;;10.97;3.80;;;22.30;1.00;;;;;;5080770;28;20246;-79
2021/08/25 12:39:10;;;;;;;5.90;3.43;;;22.30;1.00;;;;;;5064147;28;20538;-78
2021/08/25 12:41:38;;;;;;;7.03;3.73;;;22.40;99.90;;;;;;5083666;28;20164;-80
2021/08/25 12:44:07;;;;;;;8.37;4.00;;;22.50;1.00;;;;;;5079705;28;20194;-81
2021/08/25 12:46:59;;;;;;;9.17;4.60;;;22.70;99.90;;;;;;5078953;28;20259;-79
2021/08/25 12:49:27;;;;;;;7.77;4.20;;;22.50;99.90;;;;;;5082703;28;20245;-81